Time;durP1;ratioP1;P1;durP2;ratioP2;P2;SDS_P1;SDS_P2;PMS_P1;PMS_P2;Temp;Humidity;BMP_temperature;BMP_pressure;BME280_temperature;BME280_humidity;BME280_pressure;Samples;Min_cycle;Max_cycle;Signal;HPM_P1;HPM_P2
2022/02/15 00:01:37;;;;;;;;;;;7.00;99.90;;;5.95;79.03;94919.34;10399017;28;1882;-76
2022/02/15 00:06:40;;;;;;;;;;;6.90;99.90;;;5.89;79.67;94923.03;10392963;28;1975;-75
2022/02/15 00:11:43;;;;;;;;;;;6.90;99.90;;;5.88;80.06;94918.75;10397330;28;1870;-74
2022/02/15 00:16:47;;;;;;;;;;;6.90;99.90;;;5.85;80.13;94919.31;10414539;28;1801;-75
2022/02/15 00:21:50;;;;;;;;;;;6.90;99.90;;;5.86;80.67;94925.44;10400099;28;1842;-76
2022/02/15 00:26:52;;;;;;;;;;;6.90;99.90;;;5.83;81.22;94932.09;10392913;28;1989;-76
2022/02/15 00:31:56;;;;;;;;;;;6.80;99.90;;;5.87;81.02;94933.16;10400439;28;1876;-75
2022/02/15 00:36:59;;;;;;;;;;;6.80;99.90;;;5.83;81.95;94936.63;10393191;28;1893;-76
2022/02/15 00:42:02;;;;;;;;;;;6.80;99.90;;;5.82;81.61;94930.50;10480255;22;2073;-70
2022/02/15 00:47:05;;;;;;;;;;;6.80;99.90;;;5.86;81.54;94931.56;10479348;28;1926;-71
2022/02/15 00:52:09;;;;;;;;;;;6.80;99.90;;;5.83;81.42;94933.97;10451414;28;1909;-70
2022/02/15 00:57:13;;;;;;;;;;;6.80;99.90;;;5.86;81.38;94939.56;10442996;28;1928;-70
2022/02/15 01:02:16;;;;;;;;;;;6.80;99.90;;;5.79;82.51;94941.69;10446856;28;1934;-71
2022/02/15 01:07:19;;;;;;;;;;;6.80;99.90;;;5.76;82.25;94941.41;10445059;28;1917;-70
2022/02/15 01:12:24;;;;;;;;;;;6.70;99.90;;;5.74;83.36;94944.34;10447275;28;1816;-71
2022/02/15 01:17:27;;;;;;;;;;;6.70;99.90;;;5.75;82.97;94943.28;10440735;28;1890;-70
2022/02/15 01:22:29;;;;;;;;;;;6.80;99.90;;;5.73;83.20;94940.09;10468042;28;1809;-70
2022/02/15 01:27:33;;;;;;;;;;;6.70;99.90;;;5.66;83.52;94952.84;10478094;28;1894;-70
2022/02/15 01:32:36;;;;;;;;;;;6.70;99.90;;;5.55;84.00;94951.22;10480085;28;1855;-69
2022/02/15 01:37:40;;;;;;;;;;;6.80;99.90;;;5.61;84.00;94956.31;10474629;28;1915;-69
2022/02/15 01:42:43;;;;;;;;;;;6.60;99.90;;;5.63;84.20;94958.72;10475272;28;2042;-69
2022/02/15 01:47:46;;;;;;;;;;;6.60;99.90;;;5.58;84.36;94958.69;10479738;28;1973;-69
2022/02/15 01:52:49;;;;;;;;;;;6.60;99.90;;;5.56;84.66;94958.16;10481681;28;1732;-70
2022/02/15 01:57:52;;;;;;;;;;;6.60;99.90;;;5.55;85.56;94951.22;10471608;28;1870;-70
2022/02/15 02:02:55;;;;;;;;;;;6.50;99.90;;;5.53;87.81;94954.13;10462375;28;2270;-69
2022/02/15 02:07:58;;;;;;;;;;;6.50;99.90;;;5.41;89.88;94957.03;10474440;28;1900;-70
2022/02/15 02:13:02;;;;;;;;;;;6.40;99.90;;;5.30;91.71;94949.25;10475571;28;1984;-70
2022/02/15 02:18:09;;;;;;;;;;;6.40;99.90;;;5.24;93.36;94959.09;10474080;28;1922;-70
2022/02/15 02:23:13;;;;;;;;;;;6.30;99.90;;;5.20;95.24;94957.19;10469830;28;2218;-70
2022/02/15 02:28:28;;;;;;;;;;;6.20;99.90;;;5.14;96.35;94959.03;10456001;28;1914;-70
2022/02/15 02:33:32;;;;;;;;;;;6.10;99.90;;;5.13;96.86;94954.78;10443747;28;2192;-69
2022/02/15 02:38:35;;;;;;;;;;;6.10;99.90;;;5.14;97.17;94956.38;10452963;28;1867;-71
2022/02/15 02:43:38;;;;;;;;;;;6.10;99.90;;;5.12;97.35;94967.28;10464032;28;1923;-70
2022/02/15 02:48:42;;;;;;;;;;;6.20;99.90;;;5.05;98.79;94981.91;10453352;28;1926;-71
2022/02/15 02:53:45;;;;;;;;;;;6.10;99.90;;;5.05;100.00;94985.38;10442373;28;2267;-70
2022/02/15 02:58:49;;;;;;;;;;;6.10;99.90;;;5.03;100.00;94992.03;10443601;28;2106;-71
2022/02/15 03:03:53;;;;;;;;;;;6.10;99.90;;;4.98;100.00;94994.66;10442504;28;1929;-70
2022/02/15 03:08:56;;;;;;;;;;;6.00;99.90;;;4.85;100.00;94991.38;10439251;28;2055;-69
2022/02/15 03:13:59;;;;;;;;;;;5.90;99.90;;;4.81;100.00;95003.59;10445604;28;1963;-70
2022/02/15 03:19:03;;;;;;;;;;;5.90;99.90;;;4.79;100.00;95007.59;10444079;28;1971;-69
2022/02/15 03:24:06;;;;;;;;;;;5.80;99.90;;;4.76;100.00;95014.19;10452908;28;1991;-70
2022/02/15 03:29:10;;;;;;;;;;;5.80;99.90;;;4.75;100.00;95023.25;10442596;28;1929;-70
2022/02/15 03:34:14;;;;;;;;;;;5.80;99.90;;;4.78;100.00;95032.59;10445678;28;2012;-71
2022/02/15 03:39:17;;;;;;;;;;;5.80;99.90;;;4.69;100.00;95039.44;10436595;28;2030;-69
2022/02/15 03:44:20;;;;;;;;;;;5.70;99.90;;;4.65;100.00;95044.50;10443304;28;2039;-69
2022/02/15 03:49:24;;;;;;;;;;;5.70;99.90;;;4.63;100.00;95045.78;10442265;28;1971;-70
2022/02/15 03:54:28;;;;;;;;;;;5.60;99.90;;;4.58;100.00;95054.50;10441246;28;1995;-70
2022/02/15 03:59:32;;;;;;;;;;;5.60;99.90;;;4.51;100.00;95057.38;10443404;28;1971;-69
2022/02/15 04:04:35;;;;;;;;;;;5.60;99.90;;;4.53;100.00;95044.66;10441982;28;1945;-69
2022/02/15 04:09:38;;;;;;;;;;;5.70;99.90;;;4.39;100.00;95055.94;10445294;28;2159;-70
2022/02/15 04:14:41;;;;;;;;;;;5.60;99.90;;;4.32;100.00;95054.28;10453120;28;2022;-70
2022/02/15 04:19:45;;;;;;;;;;;5.50;99.90;;;4.21;100.00;95068.56;10450815;28;1943;-70
2022/02/15 04:24:48;;;;;;;;;;;5.30;99.90;;;4.07;100.00;95070.00;10449404;28;1940;-69
2022/02/15 04:29:51;;;;;;;;;;;5.30;99.90;;;4.20;100.00;95077.59;10454950;28;1959;-69
2022/02/15 04:34:54;;;;;;;;;;;5.20;99.90;;;4.19;100.00;95086.63;10449369;28;1924;-70
2022/02/15 04:39:59;;;;;;;;;;;5.20;99.90;;;4.16;100.00;95091.66;10445799;28;2012;-70
2022/02/15 04:45:02;;;;;;;;;;;5.20;99.90;;;4.04;100.00;95087.25;10446381;28;2360;-70
2022/02/15 04:50:05;;;;;;;;;;;5.10;99.90;;;4.06;100.00;95079.03;10446415;28;2372;-70
2022/02/15 04:55:08;;;;;;;;;;;5.10;99.90;;;3.98;100.00;95085.59;10448118;28;2451;-70
2022/02/15 05:00:12;;;;;;;;;;;5.10;99.90;;;3.94;100.00;95097.78;10450404;28;1948;-70
2022/02/15 05:05:15;;;;;;;;;;;5.10;99.90;;;3.91;100.00;95092.16;10440112;28;1847;-71
2022/02/15 05:10:18;;;;;;;;;;;5.00;99.90;;;3.96;100.00;95105.53;10436885;28;2040;-70
2022/02/15 05:15:20;;;;;;;;;;;5.00;99.90;;;4.00;100.00;95110.06;10451169;28;1928;-69
2022/02/15 05:20:24;;;;;;;;;;;5.00;99.90;;;3.98;100.00;95109.53;10446364;28;1987;-70
2022/02/15 05:25:28;;;;;;;;;;;5.00;99.90;;;3.96;100.00;95108.19;10456054;28;1913;-70
2022/02/15 05:30:31;;;;;;;;;;;5.00;99.90;;;3.88;100.00;95108.59;10455556;28;1917;-69
2022/02/15 05:35:34;;;;;;;;;;;5.00;99.90;;;3.94;100.00;95118.25;10451320;28;2007;-70
2022/02/15 05:40:40;;;;;;;;;;;5.00;99.90;;;3.93;100.00;95121.97;10449938;28;1948;-70
2022/02/15 05:45:44;;;;;;;;;;;4.90;99.90;;;3.83;100.00;95127.16;10447951;28;1885;-70
2022/02/15 05:50:52;;;;;;;;;;;4.90;99.90;;;3.83;100.00;95140.47;10455998;28;2028;-70
2022/02/15 05:55:58;;;;;;;;;;;4.80;99.90;;;3.79;100.00;95148.91;10444802;28;1865;-70
2022/02/15 06:01:01;;;;;;;;;;;5.00;99.90;;;3.71;100.00;95146.69;10439620;28;1976;-71
2022/02/15 06:06:05;;;;;;;;;;;4.80;99.90;;;3.73;100.00;95149.88;10442992;28;2065;-70
2022/02/15 06:11:08;;;;;;;;;;;4.70;99.90;;;3.70;100.00;95149.59;10443742;28;1910;-71
2022/02/15 06:16:11;;;;;;;;;;;4.70;99.90;;;3.70;100.00;95154.91;10452012;28;1925;-70
2022/02/15 06:21:14;;;;;;;;;;;4.70;99.90;;;3.72;100.00;95164.25;10472382;28;1872;-70
2022/02/15 06:26:17;;;;;;;;;;;4.70;99.90;;;3.69;100.00;95155.94;10463306;28;1882;-71
2022/02/15 06:31:21;;;;;;;;;;;4.70;99.90;;;3.68;100.00;95167.63;10463163;28;1973;-72
2022/02/15 06:36:24;;;;;;;;;;;4.70;99.90;;;3.69;100.00;95171.88;10461931;28;1972;-74
2022/02/15 06:41:28;;;;;;;;;;;4.70;99.90;;;3.64;100.00;95172.63;10443857;28;1933;-71
2022/02/15 06:46:31;;;;;;;;;;;4.70;99.90;;;3.77;100.00;95182.13;10442870;28;2407;-70
2022/02/15 06:51:34;;;;;;;;;;;4.70;99.90;;;3.78;100.00;95189.03;10444856;28;1984;-72
2022/02/15 06:56:38;;;;;;;;;;;4.90;99.90;;;3.82;100.00;95206.13;10441733;28;1929;-71
2022/02/15 07:01:41;;;;;;;;;;;4.80;99.90;;;3.87;100.00;95203.50;10440664;28;1917;-72
2022/02/15 07:06:44;;;;;;;;;;;4.90;99.90;;;3.95;100.00;95211.09;10441559;28;2000;-71
2022/02/15 07:11:46;;;;;;;;;;;4.90;99.90;;;3.91;100.00;95219.78;10440731;28;2003;-71
2022/02/15 07:16:50;;;;;;;;;;;5.10;99.90;;;3.92;100.00;95222.19;10440866;28;2009;-71
2022/02/15 07:21:54;;;;;;;;;;;5.00;99.90;;;4.04;100.00;95227.41;10438518;28;1969;-70
2022/02/15 07:26:59;;;;;;;;;;;5.00;99.90;;;4.10;100.00;95228.28;10438057;28;1999;-71
2022/02/15 07:32:03;;;;;;;;;;;5.10;99.90;;;4.16;100.00;95230.78;10442315;28;2193;-72
2022/02/15 07:37:06;;;;;;;;;;;5.10;99.90;;;4.31;100.00;95236.28;10438151;28;1920;-72
2022/02/15 07:42:10;;;;;;;;;;;5.20;99.90;;;4.34;100.00;95241.13;10433224;28;2017;-72
2022/02/15 07:47:13;;;;;;;;;;;5.30;99.90;;;4.30;100.00;95249.84;10436306;28;1953;-71
2022/02/15 07:52:16;;;;;;;;;;;5.30;99.90;;;4.34;100.00;95251.75;10445300;28;1968;-71
2022/02/15 07:57:20;;;;;;;;;;;5.30;99.90;;;4.49;100.00;95260.97;10430146;28;1925;-71
2022/02/15 08:02:24;;;;;;;;;;;5.40;99.90;;;4.61;100.00;95251.00;10441013;28;1893;-71
2022/02/15 08:07:27;;;;;;;;;;;5.50;99.90;;;4.83;100.00;95254.44;10436784;28;1979;-70
2022/02/15 08:12:30;;;;;;;;;;;5.70;99.90;;;4.98;100.00;95250.34;10439653;28;2019;-72
2022/02/15 08:17:33;;;;;;;;;;;5.80;99.90;;;5.34;100.00;95256.81;10442531;28;2070;-71
2022/02/15 08:22:37;;;;;;;;;;;6.00;99.90;;;5.57;100.00;95253.03;10436127;28;1972;-71
2022/02/15 08:27:41;;;;;;;;;;;6.40;99.90;;;5.56;100.00;95254.09;10437418;28;1866;-71
2022/02/15 08:32:45;;;;;;;;;;;6.50;99.90;;;5.68;100.00;95260.03;10441067;28;1992;-71
2022/02/15 08:37:49;;;;;;;;;;;6.50;99.90;;;5.82;100.00;95261.22;10442419;28;1920;-70
2022/02/15 08:42:52;;;;;;;;;;;6.60;99.90;;;5.88;100.00;95275.41;10431384;28;1948;-70
2022/02/15 08:47:56;;;;;;;;;;;6.70;99.90;;;6.06;100.00;95275.03;10434332;28;1959;-70
2022/02/15 08:52:59;;;;;;;;;;;6.90;99.90;;;5.97;100.00;95292.56;10441478;28;1993;-71
2022/02/15 08:58:02;;;;;;;;;;;6.90;99.90;;;6.03;100.00;95294.19;10441630;28;1965;-71
2022/02/15 09:03:05;;;;;;;;;;;6.90;99.90;;;5.99;100.00;95309.13;10434323;28;1944;-70
2022/02/15 09:08:08;;;;;;;;;;;6.90;99.90;;;6.04;100.00;95297.66;10432288;28;1971;-71
2022/02/15 09:13:11;;;;;;;;;;;6.90;99.90;;;6.10;100.00;95294.78;10446837;28;2003;-71
2022/02/15 09:18:15;;;;;;;;;;;6.90;99.90;;;6.10;100.00;95299.31;10443617;28;1976;-70
2022/02/15 09:23:18;;;;;;;;;;;6.90;99.90;;;6.29;100.00;95300.50;10440543;28;1917;-71
2022/02/15 09:28:21;;;;;;;;;;;7.00;99.90;;;6.45;100.00;95290.72;10444169;28;2010;-70
2022/02/15 09:33:24;;;;;;;;;;;7.10;99.90;;;6.61;100.00;95296.94;10445427;28;1912;-71
2022/02/15 09:38:47;;;;;;;;;;;7.30;99.90;;;6.72;100.00;95296.72;10443278;28;2062;-71
2022/02/15 09:43:51;;;;;;;;;;;7.40;99.90;;;6.84;100.00;95295.72;10445583;28;2021;-72
2022/02/15 09:48:54;;;;;;;;;;;7.60;99.90;;;6.80;97.83;95302.63;10443468;28;2031;-70
2022/02/15 09:53:57;;;;;;;;;;;7.60;99.90;;;6.85;99.03;95306.13;10442941;28;1971;-70
2022/02/15 09:59:01;;;;;;;;;;;7.60;99.90;;;6.82;97.41;95306.66;10438777;28;1999;-71
2022/02/15 10:04:04;;;;;;;;;;;7.60;99.90;;;6.62;98.56;95320.72;10444379;28;2019;-71
2022/02/15 10:09:08;;;;;;;;;;;7.50;99.90;;;6.50;99.61;95326.28;10442011;28;2018;-72
2022/02/15 10:14:11;;;;;;;;;;;7.40;99.90;;;6.37;100.00;95328.59;10444051;28;2058;-70
2022/02/15 10:19:15;;;;;;;;;;;7.30;99.90;;;6.36;100.00;95340.31;10443410;28;2012;-71
2022/02/15 10:24:18;;;;;;;;;;;7.30;99.90;;;6.36;100.00;95335.81;10442865;28;2025;-71
2022/02/15 10:29:21;;;;;;;;;;;7.20;99.90;;;6.45;100.00;95334.25;10440309;28;2525;-71
2022/02/15 10:34:29;;;;;;;;;;;7.30;99.90;;;6.64;100.00;95337.28;10445357;28;1952;-70
2022/02/15 10:39:32;;;;;;;;;;;7.40;99.90;;;6.90;100.00;95340.09;10445211;28;1987;-71
2022/02/15 10:44:35;;;;;;;;;;;7.60;99.90;;;6.89;100.00;95339.28;10444522;28;1964;-72
2022/02/15 10:49:39;;;;;;;;;;;7.70;99.90;;;6.69;100.00;95339.19;10440918;28;1933;-72
2022/02/15 10:54:42;;;;;;;;;;;7.60;99.90;;;6.67;99.58;95344.78;10443712;28;2067;-71
2022/02/15 10:59:45;;;;;;;;;;;7.50;99.90;;;6.49;99.78;95343.34;10434593;28;1948;-71
2022/02/15 11:04:49;;;;;;;;;;;7.50;99.90;;;6.18;100.00;95349.56;10438450;28;1956;-72
2022/02/15 11:09:52;;;;;;;;;;;7.30;99.90;;;6.36;100.00;95345.66;10434977;28;2010;-71
2022/02/15 11:14:56;;;;;;;;;;;7.20;99.90;;;6.44;100.00;95348.66;10443038;28;1869;-71
2022/02/15 11:19:59;;;;;;;;;;;7.30;99.90;;;6.55;100.00;95338.81;10442375;28;1951;-72
2022/02/15 11:25:03;;;;;;;;;;;7.30;99.90;;;6.78;99.59;95342.97;10439534;28;1931;-71
2022/02/15 11:30:06;;;;;;;;;;;7.50;99.90;;;6.44;98.69;95337.97;10440815;28;1972;-71
2022/02/15 11:35:10;;;;;;;;;;;7.50;99.90;;;6.66;98.59;95339.69;10450034;28;1905;-72
2022/02/15 11:40:13;;;;;;;;;;;7.50;99.90;;;6.53;98.23;95346.31;10438580;28;1893;-71
2022/02/15 11:45:17;;;;;;;;;;;7.50;99.90;;;6.44;99.02;95340.66;10442920;28;1952;-72
2022/02/15 11:50:20;;;;;;;;;;;7.40;99.90;;;6.30;100.00;95344.84;10436834;28;2065;-71
2022/02/15 11:55:23;;;;;;;;;;;7.30;99.90;;;6.53;98.07;95335.63;10440046;28;2106;-70
2022/02/15 12:00:27;;;;;;;;;;;7.30;99.90;;;6.66;98.42;95339.69;10463163;28;1980;-71
2022/02/15 12:05:34;;;;;;;;;;;7.40;99.90;;;6.94;97.77;95331.28;10442218;28;1913;-72
2022/02/15 12:10:37;;;;;;;;;;;7.50;99.90;;;7.27;93.50;95337.28;10433719;28;1996;-70
2022/02/15 12:15:40;;;;;;;;;;;7.90;99.90;;;7.42;91.36;95334.63;10434319;28;2007;-72
2022/02/15 12:20:45;;;;;;;;;;;8.10;99.90;;;7.25;93.32;95342.91;10435445;28;1987;-73
2022/02/15 12:25:49;;;;;;;;;;;8.10;99.90;;;7.18;92.97;95344.19;10438700;28;1901;-72
2022/02/15 12:30:52;;;;;;;;;;;8.00;99.90;;;7.23;93.82;95349.56;10436929;28;1909;-70
2022/02/15 12:35:55;;;;;;;;;;;7.90;99.90;;;7.26;91.42;95349.84;10433175;28;1928;-73
2022/02/15 12:40:58;;;;;;;;;;;8.00;99.90;;;7.14;92.17;95351.94;10438567;28;1909;-72
2022/02/15 12:46:01;;;;;;;;;;;8.00;99.90;;;7.10;92.53;95342.03;10440045;28;1957;-70
2022/02/15 12:51:05;;;;;;;;;;;8.00;99.90;;;7.25;91.98;95344.75;10442656;28;1952;-72
2022/02/15 12:56:08;;;;;;;;;;;8.00;99.90;;;6.64;94.72;95344.50;10444208;28;1975;-70
2022/02/15 13:01:11;;;;;;;;;;;7.90;99.90;;;6.47;96.21;95337.44;10447228;28;1913;-72
2022/02/15 13:06:14;;;;;;;;;;;7.60;99.90;;;6.26;99.27;95334.94;10446284;28;1984;-71
2022/02/15 13:11:18;;;;;;;;;;;7.30;99.90;;;6.58;98.73;95338.31;10442205;28;1968;-73
2022/02/15 13:16:21;;;;;;;;;;;7.40;99.90;;;6.53;97.71;95342.81;10445870;28;1905;-70
2022/02/15 13:21:24;;;;;;;;;;;7.50;99.90;;;6.40;98.86;95347.56;10445636;28;1984;-71
2022/02/15 13:26:27;;;;;;;;;;;7.40;99.90;;;6.43;100.00;95352.41;10444360;28;1944;-71
2022/02/15 13:31:30;;;;;;;;;;;7.40;99.90;;;6.57;99.16;95347.41;10441580;28;1996;-73
2022/02/15 13:36:33;;;;;;;;;;;7.40;99.90;;;6.76;96.60;95343.22;10447959;28;1939;-71
2022/02/15 13:41:37;;;;;;;;;;;7.50;99.90;;;6.71;96.30;95345.06;10440191;28;2379;-70
2022/02/15 13:46:40;;;;;;;;;;;7.60;99.90;;;6.68;94.18;95358.94;10446103;28;2037;-70
2022/02/15 13:51:46;;;;;;;;;;;7.60;99.90;;;6.89;90.72;95349.97;10452001;28;1950;-71
2022/02/15 13:56:50;;;;;;;;;;;7.60;99.90;;;6.96;91.49;95368.44;10441960;28;1939;-70
2022/02/15 14:01:53;;;;;;;;;;;8.00;99.90;;;7.29;89.77;95364.56;10448973;28;1879;-72
2022/02/15 14:06:56;;;;;;;;;;;7.90;99.90;;;7.12;90.06;95363.94;10442258;28;1928;-70
2022/02/15 14:12:00;;;;;;;;;;;8.10;99.90;;;6.65;96.73;95383.50;10442773;28;2135;-72
2022/02/15 14:22:26;;;;;;;;;;;7.40;99.90;;;5.96;100.00;95395.78;10444052;28;1941;-71
2022/02/15 14:27:30;;;;;;;;;;;7.00;99.90;;;5.96;100.00;95395.78;10438066;28;1903;-72
2022/02/15 14:32:34;;;;;;;;;;;6.90;99.90;;;6.27;100.00;95401.41;10438485;28;1899;-71
2022/02/15 14:37:37;;;;;;;;;;;7.00;99.90;;;6.62;100.00;95398.19;10445654;28;1946;-69
2022/02/15 14:42:40;;;;;;;;;;;7.30;99.90;;;6.73;100.00;95410.50;10444552;28;1827;-70
2022/02/15 14:47:43;;;;;;;;;;;7.60;99.90;;;6.58;100.00;95409.63;10428564;28;1891;-73
2022/02/15 14:52:46;;;;;;;;;;;7.60;99.90;;;6.15;100.00;95424.78;10439270;28;1986;-72
2022/02/15 14:57:49;;;;;;;;;;;7.40;99.90;;;5.01;100.00;95438.97;10437572;28;1776;-72
2022/02/15 15:02:53;;;;;;;;;;;6.40;99.90;;;4.53;100.00;95457.22;10440603;28;1858;-72
2022/02/15 15:07:55;;;;;;;;;;;5.80;99.90;;;4.16;100.00;95462.22;10455195;28;1942;-71
2022/02/15 15:12:58;;;;;;;;;;;5.40;99.90;;;3.92;100.00;95460.72;10447397;28;1989;-71
2022/02/15 15:18:02;;;;;;;;;;;5.10;99.90;;;3.80;100.00;95458.91;10442152;28;2038;-72
2022/02/15 15:23:08;;;;;;;;;;;4.80;99.90;;;3.80;100.00;95464.22;10445822;28;1803;-70
2022/02/15 15:28:12;;;;;;;;;;;4.70;99.90;;;3.90;100.00;95462.81;10450225;28;2022;-69
2022/02/15 15:33:16;;;;;;;;;;;4.80;99.90;;;3.89;100.00;95469.19;10440620;28;1913;-72
2022/02/15 15:38:19;;;;;;;;;;;4.80;99.90;;;3.94;100.00;95466.59;10445219;28;1870;-69
2022/02/15 15:43:22;;;;;;;;;;;5.00;99.90;;;3.93;100.00;95457.00;10440892;28;1791;-71
2022/02/15 15:48:26;;;;;;;;;;;4.90;99.90;;;4.09;100.00;95458.09;10441228;28;2042;-70
2022/02/15 15:53:29;;;;;;;;;;;5.00;99.90;;;4.07;100.00;95455.66;10442567;28;2098;-72
2022/02/15 15:58:32;;;;;;;;;;;5.00;99.90;;;4.21;100.00;95459.63;10435661;28;1799;-73
2022/02/15 16:03:35;;;;;;;;;;;5.20;99.90;;;4.27;100.00;95458.69;10445468;28;2025;-73
2022/02/15 16:08:40;;;;;;;;;;;5.20;99.90;;;4.33;100.00;95471.00;10442667;28;1870;-71
2022/02/15 16:13:43;;;;;;;;;;;5.30;99.90;;;4.33;100.00;95473.69;10452089;28;1973;-71
2022/02/15 16:18:47;;;;;;;;;;;5.40;99.90;;;4.32;100.00;95485.34;10452631;28;2044;-70
2022/02/15 16:23:50;;;;;;;;;;;5.40;99.90;;;4.24;100.00;95495.59;10446306;28;2378;-71
2022/02/15 16:28:53;;;;;;;;;;;5.30;99.90;;;4.32;100.00;95497.84;10447132;28;1816;-71
2022/02/15 16:33:57;;;;;;;;;;;5.30;99.90;;;4.33;100.00;95497.63;10450522;28;1981;-71
2022/02/15 16:39:01;;;;;;;;;;;5.30;99.90;;;4.31;100.00;95486.41;10441680;28;1793;-72
2022/02/15 16:44:05;;;;;;;;;;;5.40;99.90;;;4.30;100.00;95483.97;10442221;28;1896;-71
2022/02/15 16:49:08;;;;;;;;;;;5.30;99.90;;;4.29;100.00;95493.81;10436755;28;1772;-72
2022/02/15 16:54:11;;;;;;;;;;;5.40;99.90;;;4.27;100.00;95501.25;10422920;28;1975;-71
2022/02/15 16:59:14;;;;;;;;;;;5.40;99.90;;;4.28;100.00;95496.72;10433318;28;1820;-71
2022/02/15 17:04:17;;;;;;;;;;;5.30;99.90;;;4.29;100.00;95493.81;10434934;28;1972;-71
2022/02/15 17:09:21;;;;;;;;;;;5.30;99.90;;;4.23;100.00;95509.94;10436997;28;1876;-71
2022/02/15 17:14:24;;;;;;;;;;;5.30;99.90;;;4.27;100.00;95511.09;10444359;28;2158;-72
2022/02/15 17:19:27;;;;;;;;;;;5.50;99.90;;;4.19;100.00;95520.25;10434541;28;1808;-73
2022/02/15 17:24:30;;;;;;;;;;;5.30;99.90;;;4.18;100.00;95529.28;10444396;28;1773;-70
2022/02/15 17:29:33;;;;;;;;;;;5.20;99.90;;;4.13;100.00;95537.16;10425851;28;1824;-73
2022/02/15 17:34:39;;;;;;;;;;;5.40;99.90;;;3.99;100.00;95533.19;10448641;28;1914;-72
2022/02/15 17:39:42;;;;;;;;;;;5.20;99.90;;;3.83;100.00;95532.09;10450543;28;1785;-72
2022/02/15 17:44:45;;;;;;;;;;;5.10;99.90;;;3.71;100.00;95539.31;10450964;28;1864;-72
2022/02/15 17:49:48;;;;;;;;;;;4.90;99.90;;;3.59;100.00;95536.66;10448790;28;1838;-71
2022/02/15 17:54:52;;;;;;;;;;;5.00;99.90;;;3.45;100.00;95543.31;10446814;28;1987;-72
2022/02/15 17:59:55;;;;;;;;;;;4.70;99.90;;;3.41;100.00;95550.13;10445819;28;1975;-71
2022/02/15 18:04:58;;;;;;;;;;;4.60;99.90;;;3.28;100.00;95567.13;10450666;28;1868;-71
2022/02/15 18:10:01;;;;;;;;;;;4.60;99.90;;;3.19;100.00;95558.69;10442001;28;1828;-72
2022/02/15 18:15:04;;;;;;;;;;;4.50;99.90;;;3.09;100.00;95558.47;10445825;28;1910;-73
2022/02/15 18:20:09;;;;;;;;;;;4.40;99.90;;;3.13;100.00;95567.59;10462682;28;2085;-73
2022/02/15 18:25:13;;;;;;;;;;;;;;;3.00;100.00;95564.38;10445822;28;2022;-70
2022/02/15 18:30:16;;;;;;;;;;;4.20;99.90;;;3.01;100.00;95576.59;10440106;28;1897;-71
2022/02/15 18:35:20;;;;;;;;;;;4.20;99.90;;;3.18;100.00;95565.06;10445025;28;1977;-71
2022/02/15 18:40:22;;;;;;;;;;;4.20;99.90;;;3.09;100.00;95571.75;10444527;28;1819;-71
2022/02/15 18:45:27;;;;;;;;;;;4.30;99.90;;;2.97;100.00;95561.13;10435778;28;1941;-71
2022/02/15 18:50:30;;;;;;;;;;;4.30;99.90;;;2.87;100.00;95568.88;10430810;28;3307;-72
2022/02/15 18:55:33;;;;;;;;;;;4.20;99.90;;;2.96;100.00;95564.00;10437279;28;2394;-71
2022/02/15 19:00:36;;;;;;;;;;;4.10;99.90;;;2.89;100.00;95573.94;10438176;28;2510;-71
2022/02/15 19:05:40;;;;;;;;;;;4.10;99.90;;;3.09;100.00;95569.09;10443651;28;1827;-72
2022/02/15 19:10:43;;;;;;;;;;;4.10;99.90;;;3.22;100.00;95571.50;10436893;28;2430;-70
2022/02/15 19:15:48;;;;;;;;;;;4.30;99.90;;;3.40;100.00;95575.88;10435237;28;2109;-72
2022/02/15 19:20:50;;;;;;;;;;;4.40;99.90;;;3.52;100.00;95584.66;10450241;28;1863;-72
2022/02/15 19:25:54;;;;;;;;;;;4.50;99.90;;;3.59;100.00;95592.50;10450464;28;2400;-73
2022/02/15 19:30:57;;;;;;;;;;;4.60;99.90;;;3.70;100.00;95590.88;10436871;28;1847;-72
2022/02/15 19:36:00;;;;;;;;;;;4.70;99.90;;;3.73;100.00;95596.50;10441693;28;1969;-71
2022/02/15 19:41:03;;;;;;;;;;;4.70;99.90;;;3.76;100.00;95606.69;10441451;28;1833;-70
2022/02/15 19:46:06;;;;;;;;;;;4.80;99.90;;;3.79;100.00;95606.19;10441286;28;1807;-72
2022/02/15 19:51:09;;;;;;;;;;;4.80;99.90;;;3.82;100.00;95606.75;10441667;28;1985;-71
2022/02/15 19:56:12;;;;;;;;;;;4.80;99.90;;;3.82;100.00;95614.75;10443735;28;1816;-72
2022/02/15 20:01:16;;;;;;;;;;;4.80;99.90;;;3.79;100.00;95621.34;10440183;28;2326;-71
2022/02/15 20:06:20;;;;;;;;;;;4.80;99.90;;;3.82;100.00;95630.69;10439195;28;1827;-73
2022/02/15 20:11:24;;;;;;;;;;;4.80;99.90;;;3.79;100.00;95632.78;10439617;28;1983;-72
2022/02/15 20:16:28;;;;;;;;;;;4.80;99.90;;;3.72;100.00;95641.94;10435095;28;1855;-71
2022/02/15 20:21:31;;;;;;;;;;;4.70;99.90;;;3.73;100.00;95644.34;10442853;28;1841;-70
2022/02/15 20:26:34;;;;;;;;;;;4.70;99.90;;;3.70;100.00;95642.19;10442878;28;1752;-70
2022/02/15 20:31:41;;;;;;;;;;;4.70;99.90;;;3.68;100.00;95636.25;10435616;28;1947;-72
2022/02/15 20:36:46;;;;;;;;;;;4.70;99.90;;;3.65;100.00;95631.44;10438355;28;1820;-71
2022/02/15 20:41:48;;;;;;;;;;;4.70;99.90;;;3.74;100.00;95640.66;10435007;28;1894;-72
2022/02/15 20:46:52;;;;;;;;;;;4.70;99.90;;;3.68;100.00;95646.09;10438249;28;1866;-72
2022/02/15 20:51:56;;;;;;;;;;;4.70;99.90;;;3.73;100.00;95639.03;10433342;28;1914;-72
2022/02/15 20:56:59;;;;;;;;;;;4.80;99.90;;;3.69;100.00;95645.88;10436926;28;1902;-73
2022/02/15 21:02:02;;;;;;;;;;;4.80;99.90;;;3.69;100.00;95643.22;10438172;28;1776;-71
2022/02/15 21:07:05;;;;;;;;;;;4.70;99.90;;;3.74;100.00;95645.16;10444155;28;1882;-71
2022/02/15 21:12:09;;;;;;;;;;;4.70;99.90;;;3.74;100.00;95637.19;10443833;28;1902;-73
2022/02/15 21:17:12;;;;;;;;;;;4.80;99.90;;;3.74;100.00;95638.00;10442660;28;1843;-73
2022/02/15 21:22:16;;;;;;;;;;;4.80;99.90;;;3.72;100.00;95639.28;10451102;28;1848;-71
2022/02/15 21:27:19;;;;;;;;;;;4.70;99.90;;;3.65;100.00;95641.25;10438809;28;1883;-71
2022/02/15 21:32:23;;;;;;;;;;;4.80;99.90;;;3.65;100.00;95618.13;10450626;28;1910;-73
2022/02/15 21:37:26;;;;;;;;;;;4.70;99.90;;;3.60;99.42;95620.69;10451106;28;1895;-71
2022/02/15 21:42:29;;;;;;;;;;;4.70;99.90;;;3.43;99.53;95609.13;10445829;28;1862;-71
2022/02/15 21:47:32;;;;;;;;;;;4.60;99.90;;;3.25;99.53;95616.22;10444003;28;1849;-72
2022/02/15 21:52:41;;;;;;;;;;;4.50;99.90;;;3.08;100.00;95611.81;10445466;28;1910;-71
2022/02/15 21:57:44;;;;;;;;;;;4.30;99.90;;;2.97;100.00;95616.88;10442411;28;1677;-71
2022/02/15 22:02:48;;;;;;;;;;;4.20;99.90;;;2.80;100.00;95612.47;10441392;28;1863;-72
2022/02/15 22:07:51;;;;;;;;;;;4.10;99.90;;;2.65;100.00;95605.75;10442078;28;1880;-72
2022/02/15 22:12:54;;;;;;;;;;;4.00;99.90;;;2.58;100.00;95610.34;10437232;28;1944;-70
2022/02/15 22:17:57;;;;;;;;;;;4.10;99.90;;;2.54;100.00;95606.53;10437936;28;1819;-70
2022/02/15 22:23:00;;;;;;;;;;;3.90;99.90;;;2.44;100.00;95593.81;10443599;28;1899;-72
2022/02/15 22:28:03;;;;;;;;;;;4.20;99.90;;;2.44;100.00;95593.00;10439053;28;1790;-74
2022/02/15 22:33:06;;;;;;;;;;;3.60;99.90;;;2.32;100.00;95595.63;10439756;28;1898;-71
2022/02/15 22:38:09;;;;;;;;;;;3.40;99.90;;;2.30;100.00;95591.59;10449449;28;1827;-70
2022/02/15 22:43:12;;;;;;;;;;;3.50;99.90;;;2.22;100.00;95582.09;10442268;28;1848;-71
2022/02/15 22:48:16;;;;;;;;;;;3.40;99.90;;;2.12;100.00;95589.81;10440299;28;1806;-69
2022/02/15 22:53:20;;;;;;;;;;;3.40;99.90;;;2.03;100.00;95580.53;10438496;28;1914;-70
2022/02/15 22:58:27;;;;;;;;;;;3.30;99.90;;;1.99;100.00;95585.47;10437714;28;1914;-70
2022/02/15 23:03:30;;;;;;;;;;;3.30;99.90;;;1.97;100.00;95582.22;10435126;28;2194;-71
2022/02/15 23:19:15;;;;;;;;;;;3.00;99.90;;;1.92;100.00;95573.34;10433734;28;1915;-71
2022/02/15 23:24:17;;;;;;;;;;;3.00;99.90;;;1.82;100.00;95571.22;10445027;28;1859;-73
2022/02/15 23:29:21;;;;;;;;;;;3.00;99.90;;;1.79;100.00;95576.97;10431425;28;1848;-71
2022/02/15 23:34:25;;;;;;;;;;;3.00;99.90;;;1.68;100.00;95565.28;10439820;28;1914;-73
2022/02/15 23:39:28;;;;;;;;;;;2.90;99.90;;;1.71;100.00;95564.81;10439979;28;1817;-71
2022/02/15 23:44:31;;;;;;;;;;;2.90;99.90;;;1.68;100.00;95551.22;10433129;28;1846;-72
2022/02/15 23:49:35;;;;;;;;;;;2.80;99.90;;;1.63;100.00;95552.69;10439481;28;1848;-71